Germantown, Tennessee
Current Conditions -  °F | °C
As of 6:50 PM on Tuesday 25 Nov 2014 (Local Time) from KOLV Reporting Station
Broken Clouds Broken Clouds  
Wind Chill: 39°   Ceiling: 25000
Heat Index: 39°   Visibility: 10mi
Dew Point: 30°   Wind: 0mph
Humidity: 70%   Direction: NA
Pressure: 30.2"   Gusts: NA
Location:  35.1°N, 89.81°W
Report Text: KOLV 260050Z 00000KT 10SM BKN250 04/M01 A3020
Loading
Personal Weather Stations






























Interactive Weather Map New forecast layout! Learn more

10-Day Weather Forecast

Advertisements
Track Severe Weather on mobile